Time;durP1;ratioP1;P1;durP2;ratioP2;P2;SDS_P1;SDS_P2;PMS_P1;PMS_P2;Temp;Humidity;BMP_temperature;BMP_pressure;BME280_temperature;BME280_humidity;BME280_pressure;Samples;Min_cycle;Max_cycle;Signal;HPM_P1;HPM_P2
2021/08/17 00:00:18;;;;;;;7.30;1.98;;;42.10;31.70;;;;;;5049441;28;20547;-61
2021/08/17 00:02:44;;;;;;;3.22;1.45;;;42.10;31.90;;;;;;5065247;28;20085;-61
2021/08/17 00:05:11;;;;;;;7.75;1.80;;;42.10;32.30;;;;;;5065148;28;20126;-61
2021/08/17 00:07:38;;;;;;;6.40;1.40;;;42.10;31.60;;;;;;5059227;28;20085;-62
2021/08/17 00:10:06;;;;;;;50.42;22.55;;;42.10;31.40;;;;;;5063382;28;20073;-61
2021/08/17 00:12:32;;;;;;;24.63;9.02;;;42.00;31.20;;;;;;5063590;28;20485;-61
2021/08/17 00:15:01;;;;;;;4.75;1.48;;;41.90;31.80;;;;;;5050837;28;20096;-61
2021/08/17 00:17:27;;;;;;;7.60;1.42;;;41.90;31.00;;;;;;5066740;28;20077;-61
2021/08/17 00:19:54;;;;;;;9.93;1.75;;;41.90;30.80;;;;;;5061311;28;20135;-61
2021/08/17 00:22:23;;;;;;;6.18;1.55;;;41.90;31.10;;;;;;5062125;28;20077;-61
2021/08/17 00:24:52;;;;;;;6.50;1.67;;;41.80;31.40;;;;;;5058249;28;20065;-61
2021/08/17 00:27:19;;;;;;;10.13;2.10;;;41.90;31.50;;;;;;5064177;28;20073;-63
2021/08/17 00:29:47;;;;;;;6.82;1.83;;;41.70;31.90;;;;;;5062648;28;20073;-62
2021/08/17 00:32:15;;;;;;;8.85;2.10;;;41.60;32.20;;;;;;5061400;28;20775;-60
2021/08/17 00:34:42;;;;;;;10.15;1.70;;;41.60;32.20;;;;;;5062306;28;20077;-61
2021/08/17 00:37:08;;;;;;;6.50;1.63;;;41.60;32.30;;;;;;5058583;28;20069;-63
2021/08/17 00:39:37;;;;;;;13.27;1.70;;;41.40;32.50;;;;;;5060408;28;20065;-61
2021/08/17 00:42:07;;;;;;;5.50;1.77;;;41.20;32.90;;;;;;5062669;28;20088;-61
2021/08/17 00:44:33;;;;;;;4.68;1.58;;;41.10;33.00;;;;;;5061347;28;20077;-59
2021/08/17 00:47:00;;;;;;;7.97;1.80;;;41.00;33.30;;;;;;5060804;28;20069;-62
2021/08/17 00:49:28;;;;;;;8.43;2.03;;;41.00;34.20;;;;;;5063102;28;20105;-63
2021/08/17 00:51:56;;;;;;;10.98;1.77;;;40.90;34.30;;;;;;5067761;28;20128;-61
2021/08/17 00:54:23;;;;;;;9.38;1.80;;;40.70;34.50;;;;;;5060433;28;20422;-63
2021/08/17 00:56:49;;;;;;;9.77;2.13;;;40.80;34.30;;;;;;5050614;28;20081;-64
2021/08/17 00:59:16;;;;;;;11.77;1.80;;;40.70;34.70;;;;;;5061066;28;20077;-64
2021/08/17 01:01:43;;;;;;;5.65;1.60;;;40.60;34.80;;;;;;5061139;28;20073;-64
2021/08/17 01:04:10;;;;;;;9.88;2.10;;;40.50;34.40;;;;;;5060958;28;20095;-62
2021/08/17 01:06:40;;;;;;;7.35;2.25;;;40.30;34.80;;;;;;5059862;28;20096;-62
2021/08/17 01:09:10;;;;;;;10.90;1.88;;;40.40;34.80;;;;;;5063635;28;20105;-61
2021/08/17 01:11:47;;;;;;;7.28;1.80;;;40.30;35.00;;;;;;5064202;28;20547;-63
2021/08/17 01:14:23;;;;;;;6.03;1.50;;;40.10;35.00;;;;;;5060897;28;20121;-63
2021/08/17 01:16:50;;;;;;;10.35;1.60;;;40.10;34.80;;;;;;5064313;28;20081;-62
2021/08/17 01:19:20;;;;;;;8.32;1.90;;;40.00;34.90;;;;;;5061299;28;20069;-64
2021/08/17 01:21:47;;;;;;;9.38;1.67;;;40.00;35.30;;;;;;5060605;28;20073;-63
2021/08/17 01:24:18;;;;;;;10.57;1.83;;;39.90;35.00;;;;;;5065086;28;20073;-65
2021/08/17 01:26:45;;;;;;;6.78;1.80;;;39.90;35.10;;;;;;5061135;28;20133;-62
2021/08/17 01:29:15;;;;;;;13.25;2.28;;;39.90;35.10;;;;;;5060773;28;20422;-61
2021/08/17 01:31:42;;;;;;;6.25;2.00;;;39.70;35.50;;;;;;5061544;28;20146;-63
2021/08/17 01:34:09;;;;;;;12.63;1.98;;;39.70;35.50;;;;;;5061341;28;20163;-60
2021/08/17 01:36:36;;;;;;;10.07;2.13;;;39.50;35.50;;;;;;5059484;28;20548;-60
2021/08/17 01:39:03;;;;;;;8.38;1.85;;;39.60;35.60;;;;;;5061051;28;20074;-62
2021/08/17 01:41:30;;;;;;;9.82;1.92;;;39.50;35.60;;;;;;5061194;28;20076;-61
2021/08/17 01:43:57;;;;;;;10.48;2.15;;;39.40;35.80;;;;;;5060952;28;20147;-61
2021/08/17 01:46:24;;;;;;;13.63;2.17;;;39.30;36.50;;;;;;5066026;28;20069;-61
2021/08/17 01:48:50;;;;;;;13.38;2.20;;;39.20;36.50;;;;;;5062098;28;20140;-61
2021/08/17 01:51:17;;;;;;;9.52;2.10;;;39.20;37.00;;;;;;5056633;28;20409;-61
2021/08/17 01:53:44;;;;;;;7.85;1.88;;;39.10;37.40;;;;;;5059929;28;20089;-63
2021/08/17 01:56:13;;;;;;;18.98;2.53;;;39.10;37.60;;;;;;5066043;28;20103;-62
2021/08/17 01:58:43;;;;;;;13.15;2.50;;;39.00;37.90;;;;;;5061047;28;20078;-60
2021/08/17 02:01:12;;;;;;;29.85;3.03;;;38.90;38.60;;;;;;5061313;28;20159;-63
2021/08/17 02:03:40;;;;;;;12.88;2.47;;;38.90;39.00;;;;;;5063462;28;20105;-60
2021/08/17 02:06:08;;;;;;;13.60;2.47;;;38.70;39.40;;;;;;5061480;28;20077;-59
2021/08/17 02:08:35;;;;;;;21.45;2.40;;;38.60;39.70;;;;;;5060130;28;20147;-60
2021/08/17 02:11:02;;;;;;;16.88;2.90;;;38.40;39.90;;;;;;5059845;28;20089;-58
2021/08/17 02:13:30;;;;;;;16.75;2.83;;;38.30;40.30;;;;;;5059414;28;20085;-60
2021/08/17 02:15:59;;;;;;;13.18;2.75;;;38.20;40.50;;;;;;5058714;28;20081;-61
2021/08/17 02:18:31;;;;;;;18.42;2.65;;;38.20;41.10;;;;;;5061921;28;20077;-59
2021/08/17 02:21:00;;;;;;;19.00;2.75;;;38.10;41.80;;;;;;5065115;28;20100;-60
2021/08/17 02:23:28;;;;;;;15.45;3.13;;;38.00;42.30;;;;;;5060733;28;20084;-61
2021/08/17 02:25:55;;;;;;;16.42;3.00;;;38.00;42.60;;;;;;5062105;28;20077;-62
2021/08/17 02:28:22;;;;;;;18.92;2.97;;;37.90;42.70;;;;;;5048396;28;20160;-61
2021/08/17 02:30:50;;;;;;;13.30;2.80;;;37.80;43.00;;;;;;5062765;28;20085;-65
2021/08/17 02:33:17;;;;;;;12.00;3.33;;;37.70;43.10;;;;;;5060484;28;20477;-64
2021/08/17 02:35:44;;;;;;;21.90;3.17;;;37.50;43.40;;;;;;5064686;28;20120;-60
2021/08/17 02:38:12;;;;;;;14.50;3.00;;;37.60;43.50;;;;;;5067398;28;20077;-64
2021/08/17 02:40:40;;;;;;;12.38;3.53;;;37.40;43.50;;;;;;5063628;28;20099;-61
2021/08/17 02:43:07;;;;;;;17.05;3.45;;;37.40;43.80;;;;;;5066676;28;20519;-61
2021/08/17 02:45:34;;;;;;;23.45;3.55;;;37.30;44.10;;;;;;5069074;28;20088;-62
2021/08/17 02:48:02;;;;;;;10.50;4.05;;;37.20;44.00;;;;;;5063926;28;20508;-64
2021/08/17 02:50:30;;;;;;;21.23;5.43;;;37.20;43.80;;;;;;5062283;28;20081;-65
2021/08/17 02:52:57;;;;;;;22.50;6.43;;;37.10;43.60;;;;;;5067811;28;20519;-64
2021/08/17 02:55:23;;;;;;;24.23;7.70;;;37.00;43.80;;;;;;5068861;28;20097;-63
2021/08/17 02:57:55;;;;;;;34.30;9.15;;;37.00;43.70;;;;;;5066282;28;20132;-63
2021/08/17 03:00:23;;;;;;;32.22;8.38;;;36.90;43.60;;;;;;5065108;28;20103;-65
2021/08/17 03:02:49;;;;;;;27.90;9.13;;;37.00;43.50;;;;;;5061448;28;20502;-64
2021/08/17 03:05:16;;;;;;;28.38;8.50;;;36.70;43.50;;;;;;5061675;28;20159;-65
2021/08/17 03:07:51;;;;;;;32.30;7.60;;;36.70;43.70;;;;;;5067227;28;20100;-62
2021/08/17 03:10:18;;;;;;;19.00;6.95;;;36.80;43.80;;;;;;5060003;28;20486;-63
2021/08/17 03:12:45;;;;;;;22.50;5.78;;;36.70;43.80;;;;;;5063530;28;20112;-63
2021/08/17 03:15:12;;;;;;;19.40;4.80;;;36.60;43.90;;;;;;5062986;28;20073;-61
2021/08/17 03:17:39;;;;;;;25.08;4.32;;;36.50;44.00;;;;;;5065684;28;20065;-60
2021/08/17 03:20:09;;;;;;;17.85;4.03;;;36.50;44.10;;;;;;5053088;28;20085;-65
2021/08/17 03:22:37;;;;;;;16.77;3.25;;;36.50;44.00;;;;;;5049846;28;20077;-64
2021/08/17 03:25:11;;;;;;;20.48;3.78;;;36.50;43.80;;;;;;5063203;28;20164;-64
2021/08/17 03:27:38;;;;;;;11.30;3.38;;;36.40;43.80;;;;;;5068243;28;20445;-64
2021/08/17 03:30:07;;;;;;;15.13;3.03;;;36.20;44.00;;;;;;5063277;28;20534;-65
2021/08/17 03:32:34;;;;;;;19.50;3.70;;;36.30;44.00;;;;;;5062586;28;20097;-65
2021/08/17 03:35:02;;;;;;;16.25;4.03;;;36.20;44.00;;;;;;5052360;28;20535;-63
2021/08/17 03:37:29;;;;;;;23.15;3.95;;;36.20;44.10;;;;;;5066610;28;20077;-65
2021/08/17 03:39:56;;;;;;;13.45;3.47;;;36.20;44.20;;;;;;5064150;28;20069;-65
2021/08/17 03:42:23;;;;;;;17.50;3.55;;;36.10;44.50;;;;;;5061312;28;20127;-63
2021/08/17 03:44:50;;;;;;;14.90;3.33;;;36.10;44.70;;;;;;5050674;28;20073;-63
2021/08/17 03:47:16;;;;;;;16.02;3.95;;;36.00;44.90;;;;;;5064263;28;20089;-61
2021/08/17 03:49:43;;;;;;;13.90;3.80;;;36.00;45.20;;;;;;5061631;28;20132;-64
2021/08/17 03:52:10;;;;;;;12.48;3.30;;;35.90;45.20;;;;;;5065849;28;20462;-65
2021/08/17 03:54:36;;;;;;;14.85;3.22;;;35.80;45.50;;;;;;5065039;28;20077;-62
2021/08/17 03:57:03;;;;;;;14.63;3.08;;;35.80;45.70;;;;;;5063433;28;20126;-66
2021/08/17 03:59:30;;;;;;;18.85;3.22;;;35.90;46.00;;;;;;5065668;28;20465;-63
2021/08/17 04:01:56;;;;;;;11.85;3.22;;;35.70;46.20;;;;;;5062880;28;20442;-64
2021/08/17 04:04:23;;;;;;;10.23;3.05;;;35.70;46.50;;;;;;5062985;28;20065;-64
2021/08/17 04:06:49;;;;;;;13.73;3.47;;;35.70;46.60;;;;;;5064268;28;20164;-66
2021/08/17 04:09:16;;;;;;;12.02;3.60;;;35.80;46.80;;;;;;5062459;28;20073;-66
2021/08/17 04:11:43;;;;;;;13.07;3.65;;;35.60;47.10;;;;;;5069666;28;20183;-67
2021/08/17 04:14:09;;;;;;;22.52;5.53;;;35.50;47.40;;;;;;5068962;28;20084;-66
2021/08/17 04:16:36;;;;;;;22.27;6.07;;;35.50;47.50;;;;;;5067857;28;20077;-68
2021/08/17 04:19:02;;;;;;;17.73;6.53;;;35.50;47.70;;;;;;5068992;28;20073;-67
2021/08/17 04:21:29;;;;;;;21.75;6.53;;;35.40;47.70;;;;;;5064648;28;20488;-68
2021/08/17 04:24:00;;;;;;;23.67;7.07;;;35.40;48.00;;;;;;5065178;28;20151;-66
2021/08/17 04:26:27;;;;;;;21.35;6.72;;;35.40;48.20;;;;;;5063185;28;20073;-67
2021/08/17 04:28:53;;;;;;;21.77;5.45;;;35.40;48.40;;;;;;5066957;28;20538;-67
2021/08/17 04:31:20;;;;;;;15.35;4.28;;;35.40;49.10;;;;;;5062856;28;20126;-67
2021/08/17 04:33:47;;;;;;;18.35;4.40;;;35.30;48.80;;;;;;5060808;28;20594;-68
2021/08/17 04:36:13;;;;;;;17.90;3.90;;;35.20;49.00;;;;;;5063756;28;20600;-66
2021/08/17 04:38:40;;;;;;;20.63;4.32;;;35.10;49.30;;;;;;5068144;28;20077;-68
2021/08/17 04:41:06;;;;;;;13.40;3.58;;;35.20;49.70;;;;;;5063116;28;20108;-67
2021/08/17 04:43:33;;;;;;;17.08;3.95;;;35.00;49.90;;;;;;5049528;28;20148;-66
2021/08/17 04:45:59;;;;;;;14.68;3.30;;;35.00;50.20;;;;;;5062399;28;20541;-67
2021/08/17 04:48:26;;;;;;;14.60;3.40;;;35.00;50.50;;;;;;5045060;28;20105;-67
2021/08/17 04:50:52;;;;;;;20.92;4.13;;;34.90;50.70;;;;;;5045173;28;20096;-67
2021/08/17 04:53:19;;;;;;;12.23;2.72;;;34.90;51.00;;;;;;5045863;28;20545;-67
2021/08/17 04:55:46;;;;;;;23.63;4.10;;;34.80;51.30;;;;;;5046212;28;20434;-69
2021/08/17 04:58:12;;;;;;;15.63;3.50;;;34.80;51.40;;;;;;5044918;28;20147;-69
2021/08/17 05:00:44;;;;;;;11.80;3.55;;;34.70;53.70;;;;;;5041845;28;20167;-67
2021/08/17 05:03:11;;;;;;;18.50;3.72;;;34.50;59.20;;;;;;5039566;28;20081;-66
2021/08/17 05:05:38;;;;;;;12.40;3.25;;;34.40;90.70;;;;;;5044064;28;20074;-69
2021/08/17 05:08:11;;;;;;;17.77;2.85;;;34.20;66.40;;;;;;5047573;28;20024;-67
2021/08/17 05:10:38;;;;;;;16.55;4.03;;;34.30;91.10;;;;;;5043295;28;20075;-67
2021/08/17 05:13:05;;;;;;;13.40;3.60;;;34.40;65.90;;;;;;5041913;28;20030;-67
2021/08/17 05:15:32;;;;;;;22.65;3.70;;;34.50;65.80;;;;;;5042684;28;20018;-69
2021/08/17 05:17:59;;;;;;;12.98;3.90;;;34.50;62.80;;;;;;5044861;28;20363;-68
2021/08/17 05:20:26;;;;;;;11.63;4.15;;;34.80;92.90;;;;;;5039973;28;20021;-66
2021/08/17 05:22:53;;;;;;;14.32;4.03;;;34.50;83.90;;;;;;5044386;28;20524;-65
2021/08/17 05:25:19;;;;;;;12.30;3.40;;;34.50;53.10;;;;;;5044931;28;20051;-65
2021/08/17 05:27:46;;;;;;;15.07;3.47;;;34.40;53.00;;;;;;5041807;28;20078;-64
2021/08/17 05:30:14;;;;;;;19.05;3.22;;;34.40;53.00;;;;;;5044655;28;20070;-65
2021/08/17 05:32:41;;;;;;;12.38;3.20;;;34.30;53.20;;;;;;5044336;28;20193;-65
2021/08/17 05:35:08;;;;;;;11.25;3.35;;;34.40;53.30;;;;;;5041329;28;20104;-66
2021/08/17 05:37:34;;;;;;;12.93;2.83;;;34.30;53.40;;;;;;5045668;28;20080;-68
2021/08/17 05:40:01;;;;;;;10.23;3.08;;;34.30;53.70;;;;;;5042850;28;20093;-66
2021/08/17 05:42:28;;;;;;;13.95;3.85;;;34.30;54.50;;;;;;5042574;28;20097;-68
2021/08/17 05:44:54;;;;;;;13.98;3.15;;;34.30;54.00;;;;;;5044428;28;20077;-65
2021/08/17 05:47:21;;;;;;;19.92;3.60;;;34.30;54.30;;;;;;5044793;28;20074;-66
2021/08/17 05:49:48;;;;;;;14.93;4.00;;;34.20;54.50;;;;;;5059430;28;20528;-65
2021/08/17 05:52:15;;;;;;;13.07;3.42;;;34.10;54.70;;;;;;5056917;28;20143;-65
2021/08/17 05:54:42;;;;;;;17.48;3.97;;;34.10;55.00;;;;;;5061279;28;20077;-65
2021/08/17 05:57:08;;;;;;;12.85;4.07;;;34.10;54.90;;;;;;5060312;28;20073;-66
2021/08/17 05:59:35;;;;;;;13.25;4.30;;;34.10;54.90;;;;;;5047050;28;20530;-65
2021/08/17 06:02:04;;;;;;;15.43;4.20;;;34.10;54.50;;;;;;5063274;28;20073;-65
2021/08/17 06:04:30;;;;;;;15.98;4.80;;;34.10;55.20;;;;;;5057879;28;20644;-66
2021/08/17 06:06:57;;;;;;;13.63;4.40;;;34.10;55.40;;;;;;5057124;28;20550;-64
2021/08/17 06:09:24;;;;;;;16.85;5.00;;;34.00;55.80;;;;;;5062065;28;20066;-65
2021/08/17 06:11:56;;;;;;;17.23;4.63;;;34.00;55.90;;;;;;5058098;28;20101;-65
2021/08/17 06:14:24;;;;;;;14.13;3.70;;;34.00;56.10;;;;;;5067488;28;20114;-66
2021/08/17 06:16:50;;;;;;;12.65;4.13;;;34.00;72.80;;;;;;5067330;28;20108;-65
2021/08/17 06:19:17;;;;;;;14.18;3.70;;;33.80;56.50;;;;;;5053651;28;20522;-65
2021/08/17 06:21:44;;;;;;;9.65;3.30;;;33.80;56.70;;;;;;5061130;28;20142;-66
2021/08/17 06:24:10;;;;;;;16.48;3.90;;;33.80;56.90;;;;;;5059076;28;20088;-64
2021/08/17 06:26:37;;;;;;;21.80;5.15;;;33.80;57.20;;;;;;5060801;28;20081;-66
2021/08/17 06:29:03;;;;;;;19.48;4.40;;;33.70;57.40;;;;;;5059758;28;20074;-64
2021/08/17 06:31:30;;;;;;;17.92;5.38;;;33.80;57.50;;;;;;5062241;28;20097;-64
2021/08/17 06:34:00;;;;;;;15.82;5.43;;;33.70;57.60;;;;;;5061877;28;20077;-64
2021/08/17 06:36:27;;;;;;;17.45;5.22;;;33.70;57.70;;;;;;5062314;28;20133;-64
2021/08/17 06:38:54;;;;;;;19.83;6.03;;;33.70;57.60;;;;;;5055973;28;20073;-65
2021/08/17 06:41:20;;;;;;;18.65;6.43;;;33.80;57.60;;;;;;5057333;28;20085;-64
2021/08/17 06:43:47;;;;;;;18.73;6.30;;;33.70;57.70;;;;;;5061629;28;20088;-66
2021/08/17 06:46:14;;;;;;;19.48;6.60;;;33.70;57.90;;;;;;5054724;28;20409;-65
2021/08/17 06:48:40;;;;;;;28.40;7.05;;;33.60;58.10;;;;;;5063536;28;20592;-65
2021/08/17 06:51:08;;;;;;;18.58;6.97;;;33.60;58.20;;;;;;5059264;28;20183;-65
2021/08/17 06:53:35;;;;;;;21.80;7.90;;;32.90;57.90;;;;;;5057041;28;20080;-64
2021/08/17 06:56:01;;;;;;;17.65;5.80;;;33.50;58.20;;;;;;5061713;28;20550;-64
2021/08/17 06:58:28;;;;;;;19.05;5.97;;;33.60;58.20;;;;;;5061673;28;20168;-65
2021/08/17 07:00:54;;;;;;;15.75;4.75;;;33.60;58.10;;;;;;5061508;28;20507;-65
2021/08/17 07:03:21;;;;;;;13.55;4.32;;;33.50;58.00;;;;;;5060147;28;20487;-65
2021/08/17 07:05:47;;;;;;;18.13;5.15;;;33.50;58.10;;;;;;5060722;28;20077;-63
2021/08/17 07:08:15;;;;;;;16.27;4.38;;;33.50;58.20;;;;;;5063764;28;20505;-64
2021/08/17 07:10:42;;;;;;;14.00;4.00;;;33.50;58.10;;;;;;5058912;28;20104;-65
2021/08/17 07:13:09;;;;;;;7.90;3.70;;;33.50;58.00;;;;;;5059291;28;20073;-65
2021/08/17 07:15:35;;;;;;;11.25;4.10;;;33.40;58.10;;;;;;5058441;28;20403;-64
2021/08/17 07:18:02;;;;;;;15.85;4.35;;;33.40;58.10;;;;;;5055831;28;20078;-64
2021/08/17 07:20:29;;;;;;;14.50;5.38;;;33.40;58.30;;;;;;5047541;28;20088;-64
2021/08/17 07:22:56;;;;;;;17.52;5.68;;;33.40;58.20;;;;;;5063281;28;20515;-64
2021/08/17 07:25:22;;;;;;;15.98;4.90;;;33.40;58.30;;;;;;5061223;28;20081;-65
2021/08/17 07:27:49;;;;;;;24.13;5.13;;;33.40;58.30;;;;;;5062277;28;20076;-65
2021/08/17 07:30:16;;;;;;;25.15;4.95;;;33.40;58.30;;;;;;5061767;28;20112;-65
2021/08/17 07:32:44;;;;;;;15.07;4.80;;;33.50;58.20;;;;;;5063514;28;20419;-64
2021/08/17 07:35:15;;;;;;;12.45;4.47;;;33.50;58.20;;;;;;5063450;28;20514;-64
2021/08/17 07:37:44;;;;;;;13.95;4.13;;;33.40;58.40;;;;;;5068969;28;20081;-65
2021/08/17 07:40:11;;;;;;;10.18;3.65;;;33.40;58.40;;;;;;5062406;28;20131;-66
2021/08/17 07:42:38;;;;;;;11.15;3.30;;;33.40;58.70;;;;;;5065351;28;20081;-64
2021/08/17 07:45:10;;;;;;;13.15;3.92;;;33.40;58.70;;;;;;5050040;28;20073;-65
2021/08/17 07:47:38;;;;;;;10.10;3.10;;;33.30;58.80;;;;;;5063779;28;20080;-66
2021/08/17 07:50:07;;;;;;;13.27;3.35;;;33.30;58.90;;;;;;5049834;28;20089;-65
2021/08/17 07:52:37;;;;;;;12.73;3.95;;;33.20;59.40;;;;;;5049689;28;20104;-66
2021/08/17 07:55:05;;;;;;;12.48;3.42;;;33.20;59.70;;;;;;5064807;28;20118;-66
2021/08/17 07:57:32;;;;;;;9.38;3.28;;;33.20;60.10;;;;;;5063915;28;20069;-66
2021/08/17 07:59:59;;;;;;;14.30;3.45;;;33.10;60.80;;;;;;5061211;28;20486;-65
2021/08/17 08:02:26;;;;;;;11.35;3.85;;;33.10;61.20;;;;;;5059446;28;20204;-65
2021/08/17 08:04:52;;;;;;;15.27;3.50;;;33.10;61.80;;;;;;5052934;28;20075;-65
2021/08/17 08:07:19;;;;;;;15.15;3.75;;;33.00;62.30;;;;;;5063740;28;20461;-65
2021/08/17 08:09:45;;;;;;;15.02;3.90;;;32.90;62.80;;;;;;5064230;28;20095;-64
2021/08/17 08:12:13;;;;;;;13.27;3.67;;;32.90;63.60;;;;;;5062777;28;20093;-66
2021/08/17 08:14:43;;;;;;;11.63;3.35;;;32.90;64.10;;;;;;5051748;28;20414;-65
2021/08/17 08:17:10;;;;;;;10.05;3.55;;;32.80;64.20;;;;;;5064599;28;20069;-65
2021/08/17 08:19:38;;;;;;;11.23;3.85;;;32.80;65.10;;;;;;5062916;28;20116;-66
2021/08/17 08:22:06;;;;;;;12.20;4.00;;;32.80;65.10;;;;;;5065296;28;20522;-64
2021/08/17 08:24:32;;;;;;;9.40;3.58;;;32.70;65.40;;;;;;5057439;28;20135;-64
2021/08/17 08:26:59;;;;;;;12.65;3.38;;;32.70;65.60;;;;;;5062002;28;20073;-65
2021/08/17 08:29:26;;;;;;;12.70;3.22;;;32.80;65.70;;;;;;5063380;28;20476;-64
2021/08/17 08:31:54;;;;;;;9.80;2.80;;;32.80;65.90;;;;;;5061720;28;20089;-65
2021/08/17 08:34:20;;;;;;;11.48;3.13;;;32.80;66.00;;;;;;5059683;28;20065;-65
2021/08/17 08:36:49;;;;;;;12.02;3.42;;;32.70;66.50;;;;;;5053066;28;20434;-65
2021/08/17 08:39:17;;;;;;;10.95;3.90;;;32.50;74.20;;;;;;5064408;28;20065;-65
2021/08/17 08:41:46;;;;;;;9.35;3.30;;;32.70;67.00;;;;;;5066134;28;20103;-65
2021/08/17 08:44:14;;;;;;;10.40;3.30;;;32.60;67.30;;;;;;5065230;28;20103;-65
2021/08/17 08:46:41;;;;;;;11.40;3.08;;;32.60;67.60;;;;;;5059714;28;20077;-66
2021/08/17 08:49:08;;;;;;;11.07;3.08;;;32.60;67.70;;;;;;5062340;28;20110;-61
2021/08/17 08:51:38;;;;;;;12.18;2.60;;;32.70;68.40;;;;;;5065596;28;20089;-61
2021/08/17 08:54:06;;;;;;;10.32;2.85;;;32.70;68.00;;;;;;5064831;28;20126;-63
2021/08/17 08:56:32;;;;;;;14.18;3.20;;;32.90;67.70;;;;;;5059921;28;20073;-63
2021/08/17 08:58:59;;;;;;;12.32;3.17;;;33.00;67.20;;;;;;5061907;28;20109;-61
2021/08/17 09:01:27;;;;;;;8.65;3.28;;;33.10;67.30;;;;;;5061439;28;20072;-61
2021/08/17 09:03:56;;;;;;;12.57;3.15;;;33.30;67.00;;;;;;5060031;28;20119;-62
2021/08/17 09:06:28;;;;;;;12.18;3.15;;;33.40;66.80;;;;;;5062455;28;20097;-60
2021/08/17 09:09:13;;;;;;;15.10;3.35;;;33.30;67.20;;;;;;5062182;28;20124;-62
2021/08/17 09:11:42;;;;;;;9.50;3.22;;;33.30;67.60;;;;;;5057131;28;20097;-61
2021/08/17 09:14:29;;;;;;;11.07;3.08;;;33.10;68.50;;;;;;5047768;28;20077;-61
2021/08/17 09:17:01;;;;;;;9.85;2.63;;;33.20;68.50;;;;;;5061677;28;20069;-63
2021/08/17 09:19:34;;;;;;;11.10;3.58;;;33.10;68.90;;;;;;5064722;28;20107;-62
2021/08/17 09:22:03;;;;;;;11.13;3.63;;;32.90;69.40;;;;;;5062105;28;20073;-62
2021/08/17 09:24:35;;;;;;;10.18;3.97;;;32.90;69.90;;;;;;5061763;28;20411;-63
2021/08/17 09:27:12;;;;;;;11.60;3.40;;;33.00;70.00;;;;;;5050331;28;20085;-62
2021/08/17 09:29:42;;;;;;;9.20;3.42;;;33.00;70.10;;;;;;5061539;28;20061;-62
2021/08/17 09:32:16;;;;;;;14.25;3.53;;;32.90;71.00;;;;;;5060845;28;20131;-60
2021/08/17 09:34:45;;;;;;;12.68;3.58;;;32.90;71.10;;;;;;5061909;28;20076;-62
2021/08/17 09:37:12;;;;;;;10.25;3.60;;;32.70;72.40;;;;;;5062134;28;20074;-61
2021/08/17 09:39:54;;;;;;;7.97;3.25;;;32.80;72.90;;;;;;5060569;28;20073;-61
2021/08/17 09:42:34;;;;;;;11.18;3.50;;;32.70;72.60;;;;;;5059976;28;20505;-60
2021/08/17 09:45:16;;;;;;;9.75;3.30;;;32.60;73.80;;;;;;5060079;28;20545;-62
2021/08/17 09:47:54;;;;;;;10.48;3.35;;;32.60;74.90;;;;;;5060313;28;20422;-61
2021/08/17 09:50:28;;;;;;;10.00;3.25;;;32.80;74.80;;;;;;5061288;28;20148;-62
2021/08/17 09:53:12;;;;;;;19.80;3.72;;;32.50;75.00;;;;;;5063104;28;20536;-62
2021/08/17 09:55:48;;;;;;;14.45;3.42;;;32.60;75.60;;;;;;5059146;28;20073;-63
2021/08/17 09:58:35;;;;;;;10.63;3.35;;;32.50;76.30;;;;;;5060758;28;20459;-61
2021/08/17 10:01:04;;;;;;;9.85;2.60;;;32.40;76.50;;;;;;5060760;28;20080;-64
2021/08/17 10:03:32;;;;;;;11.70;3.20;;;32.30;77.00;;;;;;5061393;28;20080;-62
2021/08/17 10:05:59;;;;;;;9.93;3.33;;;32.30;77.50;;;;;;5064495;28;20077;-62
2021/08/17 10:08:32;;;;;;;12.43;3.17;;;32.10;78.60;;;;;;5060256;28;20076;-62
2021/08/17 10:10:59;;;;;;;10.02;2.28;;;32.00;79.20;;;;;;5056789;28;20176;-61
2021/08/17 10:13:28;;;;;;;12.10;3.00;;;32.10;79.70;;;;;;5062575;28;20077;-62
2021/08/17 10:15:55;;;;;;;11.52;3.05;;;32.10;79.60;;;;;;5059452;28;20466;-61
2021/08/17 10:18:28;;;;;;;11.52;2.67;;;32.10;79.80;;;;;;5057440;28;20077;-62
2021/08/17 10:21:04;;;;;;;9.50;2.65;;;32.10;80.30;;;;;;5062614;28;20077;-60
2021/08/17 10:23:33;;;;;;;13.63;2.60;;;32.10;80.30;;;;;;5061598;28;20092;-60
2021/08/17 10:26:02;;;;;;;9.68;2.38;;;32.10;80.30;;;;;;5062593;28;20111;-61
2021/08/17 10:28:33;;;;;;;13.00;2.85;;;31.90;81.10;;;;;;5058225;28;20077;-62
2021/08/17 10:31:12;;;;;;;11.23;2.50;;;31.90;80.80;;;;;;5060121;28;20174;-62
2021/08/17 10:33:52;;;;;;;8.13;2.75;;;31.90;81.10;;;;;;5056037;28;20170;-61
2021/08/17 10:36:39;;;;;;;11.32;2.75;;;32.00;81.00;;;;;;5046151;28;20080;-60
2021/08/17 10:39:07;;;;;;;13.32;3.22;;;31.80;81.90;;;;;;5060699;28;20101;-61
2021/08/17 10:41:37;;;;;;;7.82;2.40;;;31.70;82.10;;;;;;5061175;28;20519;-62
2021/08/17 10:44:07;;;;;;;9.18;2.85;;;31.70;82.80;;;;;;5061717;28;20052;-63
2021/08/17 10:46:49;;;;;;;8.73;2.85;;;31.80;82.40;;;;;;5059404;28;20107;-62
2021/08/17 10:49:36;;;;;;;8.43;2.53;;;31.80;90.90;;;;;;5059273;28;20145;-61
2021/08/17 10:52:07;;;;;;;11.23;2.78;;;31.80;82.90;;;;;;5060599;28;20089;-61
2021/08/17 10:54:35;;;;;;;9.63;2.67;;;31.80;83.20;;;;;;5060636;28;20080;-62
2021/08/17 10:57:22;;;;;;;9.40;3.03;;;31.80;83.10;;;;;;5050200;28;20103;-61
2021/08/17 10:59:49;;;;;;;;;;;31.90;83.10;;;;;;5063193;28;20119;-61
2021/08/17 11:02:22;;;;;;;9.50;2.90;;;31.60;83.80;;;;;;5064788;28;19957;-60
2021/08/17 11:04:49;;;;;;;7.85;2.60;;;31.70;84.80;;;;;;5060955;28;20077;-61
2021/08/17 11:07:32;;;;;;;10.95;2.60;;;31.60;84.10;;;;;;5065906;28;20076;-62
2021/08/17 11:10:04;;;;;;;11.88;2.65;;;31.70;84.10;;;;;;5064799;28;20111;-62
2021/08/17 11:12:38;;;;;;;12.82;3.30;;;31.50;84.10;;;;;;5063770;28;20101;-62
2021/08/17 11:15:09;;;;;;;8.57;2.85;;;31.60;83.90;;;;;;5063097;28;20095;-62
2021/08/17 11:17:36;;;;;;;8.23;2.22;;;31.60;83.60;;;;;;5064443;28;20462;-61
2021/08/17 11:20:05;;;;;;;12.82;2.78;;;31.50;84.00;;;;;;5058455;28;20065;-62
2021/08/17 11:22:36;;;;;;;6.32;2.40;;;31.40;84.10;;;;;;5065699;28;20577;-62
2021/08/17 11:25:07;;;;;;;7.93;2.55;;;31.40;84.60;;;;;;5064308;28;20089;-63
2021/08/17 11:27:42;;;;;;;8.90;2.33;;;31.50;84.20;;;;;;5062653;28;20578;-62
2021/08/17 11:30:14;;;;;;;7.72;2.20;;;31.40;84.50;;;;;;5061552;28;20072;-63
2021/08/17 11:32:55;;;;;;;9.65;2.60;;;31.50;84.30;;;;;;5063990;28;20168;-61
2021/08/17 11:35:23;;;;;;;9.32;2.97;;;31.40;84.60;;;;;;5053863;28;20123;-61
2021/08/17 11:37:56;;;;;;;8.60;2.47;;;31.20;85.70;;;;;;5065356;28;20070;-61
2021/08/17 11:40:25;;;;;;;13.18;2.75;;;31.20;85.80;;;;;;5062664;28;20065;-60
2021/08/17 11:42:56;;;;;;;15.15;2.38;;;31.20;86.30;;;;;;5069228;28;20089;-62
2021/08/17 11:45:29;;;;;;;8.65;2.80;;;31.10;86.90;;;;;;5060151;28;20070;-59
2021/08/17 11:47:59;;;;;;;10.70;2.63;;;31.00;87.60;;;;;;5064973;28;20101;-60
2021/08/17 11:50:26;;;;;;;8.77;2.75;;;31.00;87.90;;;;;;5062950;28;20487;-62
2021/08/17 11:52:54;;;;;;;8.85;2.28;;;31.10;88.00;;;;;;5065796;28;20089;-61
2021/08/17 11:55:22;;;;;;;9.00;2.72;;;31.00;88.20;;;;;;5062890;28;20105;-62
2021/08/17 11:57:57;;;;;;;6.93;2.40;;;31.00;88.30;;;;;;5062524;28;20078;-63
2021/08/17 12:00:29;;;;;;;7.47;2.35;;;30.90;88.70;;;;;;5067247;28;20158;-62
2021/08/17 12:03:08;;;;;;;10.38;2.30;;;30.90;88.60;;;;;;5064327;28;20069;-61
2021/08/17 12:05:39;;;;;;;8.75;2.08;;;30.90;89.50;;;;;;5062832;28;20073;-62
2021/08/17 12:08:10;;;;;;;15.43;2.83;;;30.90;89.40;;;;;;5061595;28;20070;-62
2021/08/17 12:10:39;;;;;;;11.48;2.60;;;31.00;89.60;;;;;;5066496;28;20081;-60
2021/08/17 12:13:11;;;;;;;8.05;2.28;;;31.00;89.90;;;;;;5065817;28;20082;-60
2021/08/17 12:15:40;;;;;;;9.50;2.22;;;31.00;89.50;;;;;;5063232;28;20119;-60
2021/08/17 12:18:11;;;;;;;9.98;2.40;;;31.10;89.60;;;;;;5060858;28;20081;-60
2021/08/17 12:20:41;;;;;;;13.13;2.80;;;31.00;90.10;;;;;;5065343;28;20437;-62
2021/08/17 12:23:17;;;;;;;14.73;3.08;;;31.00;90.70;;;;;;5068594;28;20080;-62
2021/08/17 12:25:45;;;;;;;10.25;3.03;;;31.00;91.00;;;;;;5063827;28;20080;-63
2021/08/17 12:28:27;;;;;;;14.27;3.25;;;30.90;91.20;;;;;;5062121;28;20077;-62
2021/08/17 12:31:15;;;;;;;9.30;2.60;;;31.00;91.00;;;;;;5066854;28;20522;-61
2021/08/17 12:34:09;;;;;;;11.35;2.90;;;31.00;91.50;;;;;;5064088;28;20486;-62
2021/08/17 12:36:41;;;;;;;13.52;3.25;;;30.90;92.00;;;;;;5061877;28;20081;-62
2021/08/17 12:39:08;;;;;;;14.52;2.85;;;31.10;91.70;;;;;;5061585;28;20081;-62
2021/08/17 12:41:38;;;;;;;16.23;3.70;;;31.10;91.60;;;;;;5062510;28;20135;-63
2021/08/17 12:44:37;;;;;;;12.65;3.30;;;31.00;91.90;;;;;;5061374;28;20077;-64
2021/08/17 12:47:11;;;;;;;11.57;2.90;;;31.00;92.00;;;;;;5061308;28;20077;-62
2021/08/17 12:49:49;;;;;;;11.88;3.28;;;31.00;92.40;;;;;;5062730;28;20492;-61